www.cux-wetter.de
Wetterdaten: Woche 04.02.08 - 10.02.08 (KW6)
Datum Zeit Temp. A. Feuchte A. Luftdruck Regen Wind Richtung Sonnenschein Solar Taupunkt Windchill Windben
04.02.2008 00:00 1,7 C 73 % 1004,5 hPa 0,0 l/m 17,7 km/h (3 Bft) S 0,00 h 0 W/m -2,6 C -6,3 C 17,7 km/h (3 Bft)
04.02.2008 01:00 1,6 C 74 % 1004,0 hPa 0,0 l/m 18,0 km/h (3 Bft) S 0,00 h 0 W/m -2,5 C -6,6 C 18,0 km/h (3 Bft)
04.02.2008 02:00 1,5 C 75 % 1003,5 hPa 0,0 l/m 17,2 km/h (3 Bft) S 0,00 h 0 W/m -2,4 C -6,4 C 17,2 km/h (3 Bft)
04.02.2008 03:00 1,1 C 77 % 1002,6 hPa 0,0 l/m 14,4 km/h (3 Bft) S-SO 0,00 h 0 W/m -2,5 C -5,3 C 14,4 km/h (3 Bft)
04.02.2008 04:00 1,0 C 78 % 1001,9 hPa 0,0 l/m 14,4 km/h (3 Bft) S-SO 0,00 h 0 W/m -2,4 C -5,3 C 14,4 km/h (3 Bft)
04.02.2008 05:00 1,2 C 76 % 1001,3 hPa 0,0 l/m 14,4 km/h (3 Bft) S-SO 0,00 h 0 W/m -2,5 C -5,1 C 14,4 km/h (3 Bft)
04.02.2008 06:00 1,4 C 74 % 1000,5 hPa 0,0 l/m 17,9 km/h (3 Bft) S 0,00 h 0 W/m -2,7 C -6,8 C 17,9 km/h (3 Bft)
04.02.2008 07:00 1,4 C 73 % 1000,5 hPa 0,0 l/m 17,3 km/h (3 Bft) S 0,00 h 0 W/m -2,8 C -6,5 C 17,3 km/h (3 Bft)
04.02.2008 08:00 2,1 C 70 % 1000,3 hPa 0,0 l/m 18,3 km/h (3 Bft) S 0,00 h 0 W/m -2,9 C -6,1 C 18,3 km/h (3 Bft)
04.02.2008 09:00 3,2 C 66 % 999,5 hPa 0,0 l/m 19,4 km/h (3 Bft) S 0,00 h 0 W/m -2,5 C -5,1 C 19,4 km/h (3 Bft)
04.02.2008 10:00 4,4 C 64 % 999,5 hPa 0,0 l/m 17,4 km/h (3 Bft) S 0,00 h 0 W/m -1,8 C -2,7 C 17,4 km/h (3 Bft)
04.02.2008 11:00 6,5 C 60 % 999,5 hPa 0,3 l/m 20,5 km/h (4 Bft) S 0,00 h 0 W/m -0,7 C -1,3 C 20,5 km/h (4 Bft)
04.02.2008 12:00 7,3 C 62 % 999,5 hPa 0,0 l/m 20,8 km/h (4 Bft) S-SW 0,00 h 0 W/m 0,5 C -0,4 C 20,8 km/h (4 Bft)
04.02.2008 13:00 7,4 C 66 % 999,5 hPa 0,0 l/m 23,1 km/h (4 Bft) S-SW 0,00 h 0 W/m 1,4 C -1,1 C 23,1 km/h (4 Bft)
04.02.2008 14:00 7,1 C 70 % 999,5 hPa 0,0 l/m 24,5 km/h (4 Bft) SW 0,00 h 0 W/m 2,0 C -1,8 C 24,5 km/h (4 Bft)
04.02.2008 15:00 6,2 C 81 % 1000,1 hPa 0,3 l/m 21,1 km/h (4 Bft) SW 0,00 h 0 W/m 3,2 C -1,9 C 21,1 km/h (4 Bft)
04.02.2008 16:00 5,6 C 90 % 1000,7 hPa 0,6 l/m 18,9 km/h (3 Bft) SW 0,00 h 0 W/m 4,0 C -2,0 C 18,9 km/h (3 Bft)
04.02.2008 17:00 5,2 C 93 % 1001,5 hPa 0,6 l/m 18,6 km/h (3 Bft) SW 0,00 h 0 W/m 4,2 C -2,2 C 18,6 km/h (3 Bft)
04.02.2008 18:00 5,3 C 94 % 1002,6 hPa 0,0 l/m 25,4 km/h (4 Bft) W-SW 0,00 h 0 W/m 4,5 C -4,5 C 25,4 km/h (4 Bft)
04.02.2008 19:00 5,4 C 93 % 1003,7 hPa 0,0 l/m 26,3 km/h (4 Bft) W-SW 0,00 h 0 W/m 4,4 C -4,8 C 26,3 km/h (4 Bft)
04.02.2008 20:00 5,0 C 95 % 1004,7 hPa 0,0 l/m 23,5 km/h (4 Bft) W-SW 0,00 h 0 W/m 4,2 C -4,4 C 23,5 km/h (4 Bft)
04.02.2008 21:00 4,6 C 95 % 1005,5 hPa 0,0 l/m 22,6 km/h (4 Bft) W-SW 0,00 h 0 W/m 3,9 C -4,6 C 22,6 km/h (4 Bft)
04.02.2008 22:00 4,2 C 96 % 1006,5 hPa 0,0 l/m 20,4 km/h (4 Bft) W-SW 0,00 h 0 W/m 3,6 C -4,3 C 20,4 km/h (4 Bft)
04.02.2008 23:00 3,7 C 96 % 1006,9 hPa 0,0 l/m 17,6 km/h (3 Bft) W-SW 0,00 h 0 W/m 3,1 C -3,8 C 17,6 km/h (3 Bft)
05.02.2008 00:00 3,2 C 97 % 1007,8 hPa 0,3 l/m 16,2 km/h (3 Bft) W-SW 0,00 h 0 W/m 2,8 C -3,6 C 16,2 km/h (3 Bft)
05.02.2008 01:00 2,7 C 97 % 1008,5 hPa 0,0 l/m 17,4 km/h (3 Bft) SW 0,00 h 0 W/m 2,3 C -4,9 C 17,4 km/h (3 Bft)
05.02.2008 02:00 2,5 C 97 % 1008,5 hPa 0,0 l/m 19,1 km/h (3 Bft) SW 0,00 h 0 W/m 2,0 C -6,0 C 19,1 km/h (3 Bft)
05.02.2008 03:00 2,5 C 97 % 1009,0 hPa 0,0 l/m 19,9 km/h (4 Bft) SW 0,00 h 0 W/m 2,1 C -6,1 C 19,9 km/h (4 Bft)
05.02.2008 04:00 2,5 C 97 % 1008,5 hPa 0,0 l/m 20,2 km/h (4 Bft) SW 0,00 h 0 W/m 2,0 C -6,5 C 20,2 km/h (4 Bft)
05.02.2008 05:00 2,4 C 97 % 1008,5 hPa 0,0 l/m 21,2 km/h (4 Bft) SW 0,00 h 0 W/m 1,9 C -7,0 C 21,2 km/h (4 Bft)
05.02.2008 06:00 2,6 C 97 % 1008,5 hPa 0,0 l/m 23,5 km/h (4 Bft) SW 0,00 h 0 W/m 2,2 C -7,5 C 23,5 km/h (4 Bft)
05.02.2008 07:00 3,0 C 96 % 1008,5 hPa 0,0 l/m 23,4 km/h (4 Bft) SW 0,00 h 0 W/m 2,4 C -7,1 C 23,4 km/h (4 Bft)
05.02.2008 08:00 4,4 C 93 % 1008,5 hPa 0,0 l/m 24,3 km/h (4 Bft) S-SW 0,00 h 0 W/m 3,3 C -5,5 C 24,3 km/h (4 Bft)
05.02.2008 09:00 5,1 C 86 % 1007,6 hPa 0,0 l/m 21,1 km/h (4 Bft) S 0,00 h 0 W/m 3,0 C -3,5 C 21,1 km/h (4 Bft)
05.02.2008 10:00 4,9 C 84 % 1007,5 hPa 0,0 l/m 24,3 km/h (4 Bft) S 0,00 h 0 W/m 2,4 C -4,8 C 24,3 km/h (4 Bft)
05.02.2008 11:00 4,6 C 87 % 1006,8 hPa 0,3 l/m 24,4 km/h (4 Bft) S 0,00 h 0 W/m 2,6 C -5,2 C 24,4 km/h (4 Bft)
05.02.2008 12:00 4,6 C 89 % 1005,5 hPa 0,0 l/m 27,0 km/h (4 Bft) S 0,00 h 0 W/m 2,9 C -5,9 C 27,0 km/h (4 Bft)
05.02.2008 13:00 4,9 C 89 % 1004,5 hPa 0,0 l/m 31,4 km/h (5 Bft) S-SW 0,00 h 0 W/m 3,3 C -6,8 C 31,4 km/h (5 Bft)
05.02.2008 14:00 5,1 C 91 % 1003,5 hPa 0,3 l/m 27,2 km/h (5 Bft) S-SW 0,00 h 0 W/m 3,7 C -5,4 C 27,2 km/h (5 Bft)
05.02.2008 15:00 5,7 C 90 % 1002,8 hPa 0,0 l/m 32,3 km/h (5 Bft) S-SW 0,00 h 0 W/m 4,2 C -5,9 C 32,3 km/h (5 Bft)
05.02.2008 16:00 5,7 C 93 % 1002,5 hPa 0,9 l/m 28,2 km/h (5 Bft) S-SW 0,00 h 0 W/m 4,6 C -4,9 C 28,2 km/h (5 Bft)
05.02.2008 17:00 6,1 C 95 % 1002,5 hPa 0,0 l/m 30,3 km/h (5 Bft) SW 0,00 h 0 W/m 5,4 C -4,9 C 30,3 km/h (5 Bft)
05.02.2008 18:00 6,5 C 95 % 1002,5 hPa 0,0 l/m 26,0 km/h (4 Bft) SW 0,00 h 0 W/m 5,7 C -3,2 C 26,0 km/h (4 Bft)
05.02.2008 19:00 6,8 C 94 % 1002,5 hPa 0,0 l/m 26,8 km/h (4 Bft) SW 0,00 h 0 W/m 5,9 C -2,9 C 26,8 km/h (4 Bft)
05.02.2008 20:00 7,1 C 93 % 1001,7 hPa 0,0 l/m 28,4 km/h (5 Bft) SW 0,00 h 0 W/m 6,2 C -2,8 C 28,4 km/h (5 Bft)
05.02.2008 21:00 7,6 C 92 % 1001,5 hPa 0,0 l/m 28,5 km/h (5 Bft) SW 0,00 h 0 W/m 6,5 C -2,2 C 28,5 km/h (5 Bft)
05.02.2008 22:00 7,7 C 95 % 1000,5 hPa 1,2 l/m 29,1 km/h (5 Bft) SW 0,00 h 0 W/m 6,9 C -2,3 C 29,1 km/h (5 Bft)
05.02.2008 23:00 8,1 C 97 % 999,7 hPa 1,8 l/m 28,2 km/h (5 Bft) SW 0,00 h 0 W/m 7,6 C -1,6 C 28,2 km/h (5 Bft)
06.02.2008 00:00 8,4 C 97 % 999,5 hPa 0,0 l/m 27,5 km/h (5 Bft) W-SW 0,00 h 0 W/m 7,9 C -0,9 C 27,5 km/h (5 Bft)
06.02.2008 01:00 9,0 C 95 % 999,5 hPa 0,0 l/m 30,3 km/h (5 Bft) W-SW 0,00 h 0 W/m 8,2 C -0,8 C 30,3 km/h (5 Bft)
06.02.2008 02:00 8,0 C 93 % 999,5 hPa 1,5 l/m 18,0 km/h (3 Bft) W-NW 0,00 h 0 W/m 7,0 C 1,8 C 18,0 km/h (3 Bft)
06.02.2008 03:00 7,7 C 95 % 999,5 hPa 0,0 l/m 21,3 km/h (4 Bft) W-SW 0,00 h 0 W/m 6,9 C 0,3 C 21,3 km/h (4 Bft)
06.02.2008 04:00 7,9 C 93 % 1000,1 hPa 0,0 l/m 29,9 km/h (5 Bft) W-SW 0,00 h 0 W/m 6,8 C -2,3 C 29,9 km/h (5 Bft)
06.02.2008 05:00 7,8 C 93 % 1001,0 hPa 1,5 l/m 25,8 km/h (4 Bft) W 0,00 h 0 W/m 6,7 C -1,3 C 25,8 km/h (4 Bft)
06.02.2008 06:00 7,3 C 96 % 1001,7 hPa 0,3 l/m 19,2 km/h (3 Bft) W 0,00 h 0 W/m 6,7 C 0,3 C 19,2 km/h (3 Bft)
06.02.2008 07:00 7,4 C 97 % 1002,5 hPa 0,3 l/m 19,3 km/h (3 Bft) W 0,00 h 0 W/m 6,9 C 0,3 C 19,3 km/h (3 Bft)
06.02.2008 08:00 6,8 C 97 % 1003,6 hPa 0,3 l/m 15,3 km/h (3 Bft) W 0,00 h 0 W/m 6,3 C 1,1 C 15,3 km/h (3 Bft)
06.02.2008 09:00 6,7 C 96 % 1004,7 hPa 0,0 l/m 18,3 km/h (3 Bft) W 0,00 h 0 W/m 6,1 C -0,3 C 18,3 km/h (3 Bft)
06.02.2008 10:00 6,8 C 96 % 1005,9 hPa 0,0 l/m 17,7 km/h (3 Bft) W-NW 0,00 h 0 W/m 6,2 C 0,1 C 17,7 km/h (3 Bft)
06.02.2008 11:00 7,0 C 95 % 1007,8 hPa 0,0 l/m 19,0 km/h (3 Bft) NW 0,00 h 0 W/m 6,3 C -0,2 C 19,0 km/h (3 Bft)
06.02.2008 12:00 7,1 C 93 % 1009,2 hPa 0,0 l/m 22,6 km/h (4 Bft) NW 0,00 h 0 W/m 6,1 C -1,3 C 22,6 km/h (4 Bft)
06.02.2008 13:00 7,4 C 92 % 1010,7 hPa 0,0 l/m 22,8 km/h (4 Bft) NW 0,00 h 0 W/m 6,2 C -0,9 C 22,8 km/h (4 Bft)
06.02.2008 14:00 7,3 C 90 % 1012,8 hPa 0,0 l/m 24,5 km/h (4 Bft) NW 0,00 h 0 W/m 5,8 C -1,7 C 24,5 km/h (4 Bft)
06.02.2008 15:00 7,1 C 90 % 1014,5 hPa 0,0 l/m 23,2 km/h (4 Bft) NW 0,00 h 0 W/m 5,5 C -1,5 C 23,2 km/h (4 Bft)
06.02.2008 16:00 6,7 C 88 % 1016,2 hPa 0,0 l/m 24,9 km/h (4 Bft) NW 0,00 h 0 W/m 5,0 C -2,5 C 24,9 km/h (4 Bft)
06.02.2008 17:00 6,3 C 88 % 1017,7 hPa 0,0 l/m 26,8 km/h (4 Bft) NW 0,00 h 0 W/m 4,5 C -3,6 C 26,8 km/h (4 Bft)
06.02.2008 18:00 5,9 C 88 % 1019,3 hPa 0,0 l/m 24,8 km/h (4 Bft) NW 0,00 h 0 W/m 4,0 C -3,6 C 24,8 km/h (4 Bft)
06.02.2008 19:00 5,4 C 87 % 1020,5 hPa 0,0 l/m 26,7 km/h (4 Bft) NW 0,00 h 0 W/m 3,5 C -4,9 C 26,7 km/h (4 Bft)
06.02.2008 20:00 5,3 C 88 % 1021,7 hPa 0,0 l/m 26,7 km/h (4 Bft) NW 0,00 h 0 W/m 3,5 C -5,0 C 26,7 km/h (4 Bft)
06.02.2008 21:00 5,3 C 88 % 1022,8 hPa 0,0 l/m 27,0 km/h (5 Bft) NW 0,00 h 0 W/m 3,5 C -5,1 C 27,0 km/h (5 Bft)
06.02.2008 22:00 5,4 C 89 % 1023,5 hPa 0,0 l/m 27,0 km/h (5 Bft) NW 0,00 h 0 W/m 3,6 C -5,0 C 27,0 km/h (5 Bft)
06.02.2008 23:00 5,4 C 89 % 1024,5 hPa 0,0 l/m 28,1 km/h (5 Bft) NW 0,00 h 0 W/m 3,7 C -5,2 C 28,1 km/h (5 Bft)
07.02.2008 00:00 5,0 C 89 % 1025,3 hPa 0,0 l/m 24,5 km/h (4 Bft) NW 0,00 h 0 W/m 3,4 C -4,7 C 24,5 km/h (4 Bft)
07.02.2008 01:00 5,2 C 89 % 1026,2 hPa 0,0 l/m 27,8 km/h (5 Bft) NW 0,00 h 0 W/m 3,5 C -5,4 C 27,8 km/h (5 Bft)
07.02.2008 02:00 5,2 C 89 % 1026,8 hPa 0,0 l/m 24,1 km/h (4 Bft) NW 0,00 h 0 W/m 3,5 C -4,3 C 24,1 km/h (4 Bft)
07.02.2008 03:00 5,1 C 89 % 1027,5 hPa 0,0 l/m 23,4 km/h (4 Bft) NW 0,00 h 0 W/m 3,4 C -4,2 C 23,4 km/h (4 Bft)
07.02.2008 04:00 4,8 C 89 % 1028,0 hPa 0,3 l/m 24,4 km/h (4 Bft) NW 0,00 h 0 W/m 3,2 C -4,9 C 24,4 km/h (4 Bft)
07.02.2008 05:00 4,6 C 89 % 1028,8 hPa 0,0 l/m 19,3 km/h (3 Bft) NW 0,00 h 0 W/m 3,0 C -3,4 C 19,3 km/h (3 Bft)
07.02.2008 06:00 4,4 C 91 % 1029,5 hPa 0,0 l/m 20,5 km/h (4 Bft) NW 0,00 h 0 W/m 3,1 C -4,1 C 20,5 km/h (4 Bft)
07.02.2008 07:00 4,3 C 93 % 1030,4 hPa 0,0 l/m 18,6 km/h (3 Bft) W-NW 0,00 h 0 W/m 3,2 C -3,5 C 18,6 km/h (3 Bft)
07.02.2008 08:00 4,5 C 94 % 1030,5 hPa 0,0 l/m 17,2 km/h (3 Bft) W-NW 0,00 h 0 W/m 3,5 C -2,5 C 17,2 km/h (3 Bft)
07.02.2008 09:00 7,3 C 82 % 1031,5 hPa 0,0 l/m 16,9 km/h (3 Bft) W-NW 0,00 h 0 W/m 4,4 C 1,2 C 16,9 km/h (3 Bft)
07.02.2008 10:00 5,5 C 90 % 1031,8 hPa 0,0 l/m 19,3 km/h (3 Bft) W-NW 0,00 h 0 W/m 4,0 C -2,1 C 19,3 km/h (3 Bft)
07.02.2008 11:00 6,4 C 89 % 1032,5 hPa 0,0 l/m 16,7 km/h (3 Bft) W 0,00 h 0 W/m 4,6 C 0,0 C 16,7 km/h (3 Bft)
07.02.2008 12:00 7,0 C 85 % 1032,5 hPa 0,0 l/m 15,9 km/h (3 Bft) W 0,00 h 0 W/m 4,7 C 1,1 C 15,9 km/h (3 Bft)
07.02.2008 13:00 7,3 C 82 % 1032,5 hPa 0,0 l/m 17,8 km/h (3 Bft) W 0,00 h 0 W/m 4,4 C 0,8 C 17,8 km/h (3 Bft)
07.02.2008 14:00 7,7 C 77 % 1032,5 hPa 0,0 l/m 19,6 km/h (3 Bft) W 0,00 h 0 W/m 4,0 C 0,5 C 19,6 km/h (3 Bft)
07.02.2008 15:00 7,7 C 79 % 1032,5 hPa 0,0 l/m 16,9 km/h (3 Bft) W 0,00 h 0 W/m 4,2 C 1,5 C 16,9 km/h (3 Bft)
07.02.2008 16:00 7,2 C 78 % 1032,5 hPa 0,0 l/m 20,0 km/h (4 Bft) W-SW 0,00 h 0 W/m 3,7 C -0,3 C 20,0 km/h (4 Bft)
07.02.2008 17:00 6,9 C 81 % 1032,5 hPa 0,0 l/m 20,0 km/h (4 Bft) W-SW 0,00 h 0 W/m 3,8 C -0,6 C 20,0 km/h (4 Bft)
07.02.2008 18:00 6,9 C 80 % 1032,5 hPa 0,0 l/m 19,6 km/h (3 Bft) W-SW 0,00 h 0 W/m 3,7 C -0,5 C 19,6 km/h (3 Bft)
07.02.2008 19:00 6,9 C 77 % 1032,5 hPa 0,0 l/m 20,8 km/h (4 Bft) W-SW 0,00 h 0 W/m 3,2 C -1,0 C 20,8 km/h (4 Bft)
07.02.2008 20:00 6,8 C 77 % 1032,5 hPa 0,0 l/m 21,2 km/h (4 Bft) W-SW 0,00 h 0 W/m 3,1 C -1,2 C 21,2 km/h (4 Bft)
07.02.2008 21:00 6,7 C 77 % 1032,5 hPa 0,0 l/m 24,0 km/h (4 Bft) W-SW 0,00 h 0 W/m 3,0 C -2,2 C 24,0 km/h (4 Bft)
07.02.2008 22:00 6,4 C 80 % 1032,5 hPa 0,0 l/m 26,0 km/h (4 Bft) W-SW 0,00 h 0 W/m 3,1 C -3,3 C 26,0 km/h (4 Bft)
07.02.2008 23:00 6,4 C 80 % 1032,5 hPa 0,0 l/m 23,7 km/h (4 Bft) W-SW 0,00 h 0 W/m 3,2 C -2,5 C 23,7 km/h (4 Bft)
08.02.2008 00:00 6,6 C 79 % 1033,2 hPa 0,0 l/m 17,8 km/h (3 Bft) W-SW 0,00 h 0 W/m 3,2 C -0,2 C 17,8 km/h (3 Bft)
08.02.2008 01:00 6,6 C 80 % 1033,5 hPa 0,0 l/m 18,7 km/h (3 Bft) W-SW 0,00 h 0 W/m 3,4 C -0,6 C 18,7 km/h (3 Bft)
08.02.2008 02:00 6,5 C 80 % 1033,5 hPa 0,0 l/m 21,6 km/h (4 Bft) W-SW 0,00 h 0 W/m 3,4 C -1,7 C 21,6 km/h (4 Bft)
08.02.2008 03:00 6,3 C 84 % 1033,5 hPa 0,0 l/m 21,7 km/h (4 Bft) W-SW 0,00 h 0 W/m 3,7 C -2,1 C 21,7 km/h (4 Bft)
08.02.2008 04:00 6,0 C 87 % 1033,5 hPa 0,0 l/m 21,1 km/h (4 Bft) W-SW 0,00 h 0 W/m 4,1 C -2,1 C 21,1 km/h (4 Bft)
08.02.2008 05:00 6,0 C 86 % 1033,5 hPa 0,0 l/m 20,8 km/h (4 Bft) W-SW 0,00 h 0 W/m 3,9 C -2,1 C 20,8 km/h (4 Bft)
08.02.2008 06:00 5,6 C 87 % 1033,5 hPa 0,0 l/m 18,4 km/h (3 Bft) W-SW 0,00 h 0 W/m 3,6 C -1,6 C 18,4 km/h (3 Bft)
08.02.2008 07:00 5,4 C 89 % 1033,5 hPa 0,0 l/m 21,0 km/h (4 Bft) W-SW 0,00 h 0 W/m 3,6 C -3,0 C 21,0 km/h (4 Bft)
08.02.2008 08:00 6,3 C 87 % 1033,5 hPa 0,0 l/m 19,5 km/h (3 Bft) W-SW 0,00 h 0 W/m 4,2 C -1,3 C 19,5 km/h (3 Bft)
08.02.2008 09:00 7,5 C 82 % 1033,5 hPa 0,0 l/m 15,3 km/h (3 Bft) W-SW 0,00 h 0 W/m 4,7 C 2,1 C 15,3 km/h (3 Bft)
08.02.2008 10:00 8,1 C 82 % 1034,4 hPa 0,0 l/m 20,6 km/h (4 Bft) W-SW 0,00 h 0 W/m 5,1 C 0,7 C 20,6 km/h (4 Bft)
08.02.2008 11:00 8,4 C 79 % 1035,1 hPa 0,0 l/m 18,0 km/h (3 Bft) W-SW 0,00 h 0 W/m 5,1 C 2,0 C 18,0 km/h (3 Bft)
08.02.2008 12:00 9,3 C 77 % 1034,5 hPa 0,0 l/m 16,4 km/h (3 Bft) W-SW 0,00 h 0 W/m 5,5 C 3,8 C 16,4 km/h (3 Bft)
08.02.2008 13:00 10,1 C 75 % 1034,5 hPa 0,0 l/m 15,0 km/h (3 Bft) W-SW 0,00 h 0 W/m 5,9 C 5,3 C 15,0 km/h (3 Bft)
08.02.2008 14:00 10,3 C 75 % 1034,4 hPa 0,0 l/m 14,7 km/h (3 Bft) SW 0,00 h 0 W/m 6,1 C 5,7 C 14,7 km/h (3 Bft)
08.02.2008 15:00 9,9 C 73 % 1033,6 hPa 0,0 l/m 12,9 km/h (3 Bft) SW 0,00 h 0 W/m 5,4 C 6,1 C 12,9 km/h (3 Bft)
08.02.2008 16:00 9,3 C 74 % 1033,5 hPa 0,0 l/m 11,0 km/h (2 Bft) SW 0,00 h 0 W/m 5,0 C 6,3 C 11,0 km/h (2 Bft)
08.02.2008 17:00 8,3 C 76 % 1033,5 hPa 0,0 l/m 6,5 km/h (2 Bft) S-SW 0,00 h 0 W/m 4,3 C 7,6 C 6,5 km/h (2 Bft)
08.02.2008 18:00 7,4 C 78 % 1033,5 hPa 0,0 l/m 6,7 km/h (2 Bft) S 0,00 h 0 W/m 3,8 C 6,9 C 6,7 km/h (2 Bft)
08.02.2008 19:00 6,1 C 80 % 1033,5 hPa 0,0 l/m 4,4 km/h (1 Bft) S 0,00 h 0 W/m 2,9 C 6,0 C 4,4 km/h (1 Bft)
08.02.2008 20:00 5,4 C 82 % 1033,5 hPa 0,0 l/m 6,1 km/h (2 Bft) S 0,00 h 0 W/m 2,5 C 5,1 C 6,1 km/h (2 Bft)
08.02.2008 21:00 5,2 C 80 % 1033,5 hPa 0,0 l/m 7,1 km/h (2 Bft) S 0,00 h 0 W/m 2,1 C 4,5 C 7,1 km/h (2 Bft)
08.02.2008 22:00 5,0 C 77 % 1033,5 hPa 0,0 l/m 7,4 km/h (2 Bft) S 0,00 h 0 W/m 1,3 C 3,9 C 7,4 km/h (2 Bft)
08.02.2008 23:00 4,9 C 73 % 1033,5 hPa 0,0 l/m 8,1 km/h (2 Bft) S 0,00 h 0 W/m 0,5 C 3,4 C 8,1 km/h (2 Bft)
09.02.2008 00:00 4,1 C 73 % 1033,5 hPa 0,0 l/m 5,7 km/h (2 Bft) S 0,00 h 0 W/m -0,2 C 3,8 C 5,7 km/h (2 Bft)
09.02.2008 01:00 3,7 C 74 % 1033,5 hPa 0,0 l/m 5,8 km/h (2 Bft) S 0,00 h 0 W/m -0,4 C 3,3 C 5,8 km/h (2 Bft)
09.02.2008 02:00 3,0 C 77 % 1033,5 hPa 0,0 l/m 5,2 km/h (1 Bft) S-SW 0,00 h 0 W/m -0,5 C 3,0 C 5,2 km/h (1 Bft)
09.02.2008 03:00 3,3 C 78 % 1032,6 hPa 0,0 l/m 9,1 km/h (2 Bft) S-SW 0,00 h 0 W/m -0,2 C 0,8 C 9,1 km/h (2 Bft)
09.02.2008 04:00 4,5 C 74 % 1032,5 hPa 0,0 l/m 10,7 km/h (2 Bft) SW 0,00 h 0 W/m 0,3 C 1,0 C 10,7 km/h (2 Bft)
09.02.2008 05:00 4,3 C 73 % 1032,7 hPa 0,0 l/m 9,0 km/h (2 Bft) SW 0,00 h 0 W/m -0,1 C 2,2 C 9,0 km/h (2 Bft)
09.02.2008 06:00 3,7 C 73 % 1033,3 hPa 0,0 l/m 5,3 km/h (1 Bft) S-SW 0,00 h 0 W/m -0,6 C 3,6 C 5,3 km/h (1 Bft)
09.02.2008 07:00 2,5 C 77 % 1033,5 hPa 0,0 l/m 4,9 km/h (1 Bft) S 0,00 h 0 W/m -1,2 C 2,4 C 4,9 km/h (1 Bft)
09.02.2008 08:00 2,9 C 78 % 1033,5 hPa 0,0 l/m 7,8 km/h (2 Bft) S 0,00 h 0 W/m -0,6 C 1,5 C 7,8 km/h (2 Bft)
09.02.2008 09:00 8,6 C 65 % 1033,7 hPa 0,0 l/m 7,0 km/h (2 Bft) S 0,00 h 0 W/m 2,3 C 7,9 C 7,0 km/h (2 Bft)
09.02.2008 10:00 9,2 C 60 % 1034,4 hPa 0,0 l/m 7,8 km/h (2 Bft) S 0,00 h 0 W/m 1,7 C 8,0 C 7,8 km/h (2 Bft)
09.02.2008 11:00 11,1 C 48 % 1034,5 hPa 0,0 l/m 13,9 km/h (3 Bft) SW 0,00 h 0 W/m 0,5 C 7,0 C 13,9 km/h (3 Bft)
09.02.2008 12:00 12,3 C 36 % 1034,5 hPa 0,0 l/m 15,7 km/h (3 Bft) W-SW 0,00 h 0 W/m -2,6 C 7,9 C 15,7 km/h (3 Bft)
09.02.2008 13:00 12,3 C 32 % 1033,5 hPa 0,0 l/m 17,6 km/h (3 Bft) W-SW 0,00 h 0 W/m -4,0 C 7,0 C 17,6 km/h (3 Bft)
09.02.2008 14:00 11,7 C 37 % 1033,5 hPa 0,0 l/m 13,9 km/h (3 Bft) SW 0,00 h 0 W/m -2,6 C 7,7 C 13,9 km/h (3 Bft)
09.02.2008 15:00 11,1 C 43 % 1033,5 hPa 0,0 l/m 9,7 km/h (2 Bft) SW 0,00 h 0 W/m -1,2 C 9,0 C 9,7 km/h (2 Bft)
09.02.2008 16:00 9,6 C 49 % 1033,5 hPa 0,0 l/m 5,2 km/h (1 Bft) S-SW 0,00 h 0 W/m -0,6 C 9,1 C 5,2 km/h (1 Bft)
09.02.2008 17:00 7,5 C 55 % 1033,5 hPa 0,0 l/m 0,3 km/h (0 Bft) S 0,00 h 0 W/m -0,9 C 7,5 C 0,3 km/h (0 Bft)
09.02.2008 18:00 5,7 C 61 % 1033,5 hPa 0,0 l/m 2,1 km/h (1 Bft) S 0,00 h 0 W/m -1,2 C 5,7 C 2,1 km/h (1 Bft)
09.02.2008 19:00 5,1 C 65 % 1033,8 hPa 0,0 l/m 4,2 km/h (1 Bft) S 0,00 h 0 W/m -0,9 C 5,1 C 4,2 km/h (1 Bft)
09.02.2008 20:00 5,1 C 71 % 1034,2 hPa 0,0 l/m 6,5 km/h (2 Bft) S 0,00 h 0 W/m 0,3 C 4,7 C 6,5 km/h (2 Bft)
09.02.2008 21:00 4,9 C 74 % 1033,7 hPa 0,0 l/m 4,4 km/h (1 Bft) S-SW 0,00 h 0 W/m 0,6 C 4,9 C 4,4 km/h (1 Bft)
09.02.2008 22:00 4,5 C 75 % 1033,6 hPa 0,0 l/m 4,7 km/h (1 Bft) SW 0,00 h 0 W/m 0,5 C 4,5 C 4,7 km/h (1 Bft)
09.02.2008 23:00 4,6 C 75 % 1034,2 hPa 0,0 l/m 4,8 km/h (1 Bft) SW 0,00 h 0 W/m 0,5 C 4,6 C 4,8 km/h (1 Bft)
10.02.2008 00:00 4,5 C 75 % 1034,5 hPa 0,0 l/m 5,6 km/h (2 Bft) SW 0,00 h 0 W/m 0,5 C 4,4 C 5,6 km/h (2 Bft)
10.02.2008 01:00 3,9 C 76 % 1034,3 hPa 0,0 l/m 3,9 km/h (1 Bft) SW 0,00 h 0 W/m -0,0 C 3,6 C 3,9 km/h (1 Bft)
10.02.2008 02:00 3,1 C 77 % 1034,2 hPa 0,0 l/m 1,3 km/h (1 Bft) SW 0,00 h 0 W/m -0,5 C 3,1 C 1,3 km/h (1 Bft)
10.02.2008 03:00 2,5 C 78 % 1033,7 hPa 0,0 l/m 1,6 km/h (1 Bft) SW 0,00 h 0 W/m -1,0 C 2,5 C 1,6 km/h (1 Bft)
10.02.2008 04:00 2,3 C 80 % 1033,5 hPa 0,0 l/m 4,5 km/h (1 Bft) SW 0,00 h 0 W/m -0,8 C 2,3 C 4,5 km/h (1 Bft)
10.02.2008 05:00 2,7 C 80 % 1033,5 hPa 0,0 l/m 3,9 km/h (1 Bft) W-SW 0,00 h 0 W/m -0,4 C 2,6 C 3,9 km/h (1 Bft)
10.02.2008 06:00 2,2 C 80 % 1033,5 hPa 0,0 l/m 4,3 km/h (1 Bft) SW 0,00 h 0 W/m -0,9 C 2,2 C 4,3 km/h (1 Bft)
10.02.2008 07:00 1,9 C 81 % 1034,0 hPa 0,0 l/m 4,7 km/h (1 Bft) SW 0,00 h 0 W/m -1,0 C 1,9 C 4,7 km/h (1 Bft)
10.02.2008 08:00 2,5 C 81 % 1034,5 hPa 0,0 l/m 5,3 km/h (1 Bft) SW 0,00 h 0 W/m -0,5 C 2,4 C 5,3 km/h (1 Bft)
10.02.2008 09:00 4,0 C 78 % 1034,5 hPa 0,0 l/m 6,0 km/h (2 Bft) SW 0,00 h 0 W/m 0,6 C 3,8 C 6,0 km/h (2 Bft)
10.02.2008 10:00 5,7 C 72 % 1034,5 hPa 0,0 l/m 8,9 km/h (2 Bft) W-SW 0,00 h 0 W/m 1,1 C 3,7 C 8,9 km/h (2 Bft)
10.02.2008 11:00 9,0 C 56 % 1034,5 hPa 0,0 l/m 16,9 km/h (3 Bft) W 0,00 h 0 W/m 0,6 C 3,2 C 16,9 km/h (3 Bft)
10.02.2008 12:00 10,5 C 48 % 1034,5 hPa 0,0 l/m 19,4 km/h (3 Bft) W 0,00 h 0 W/m -0,0 C 4,1 C 19,4 km/h (3 Bft)
10.02.2008 13:00 10,8 C 47 % 1034,5 hPa 0,0 l/m 17,3 km/h (3 Bft) W 0,00 h 0 W/m -0,1 C 5,3 C 17,3 km/h (3 Bft)
10.02.2008 14:00 10,5 C 53 % 1034,3 hPa 0,0 l/m 17,2 km/h (3 Bft) W-SW 0,00 h 0 W/m 1,5 C 5,0 C 17,2 km/h (3 Bft)
10.02.2008 15:00 10,6 C 57 % 1034,3 hPa 0,0 l/m 15,8 km/h (3 Bft) W 0,00 h 0 W/m 2,3 C 5,5 C 15,8 km/h (3 Bft)
10.02.2008 16:00 9,7 C 61 % 1034,5 hPa 0,0 l/m 11,4 km/h (2 Bft) W-SW 0,00 h 0 W/m 2,6 C 6,6 C 11,4 km/h (2 Bft)
10.02.2008 17:00 7,9 C 67 % 1034,5 hPa 0,0 l/m 6,7 km/h (2 Bft) W 0,00 h 0 W/m 2,2 C 7,3 C 6,7 km/h (2 Bft)
10.02.2008 18:00 6,2 C 72 % 1034,5 hPa 0,0 l/m 5,5 km/h (2 Bft) W 0,00 h 0 W/m 1,6 C 6,2 C 5,5 km/h (2 Bft)
10.02.2008 19:00 5,8 C 74 % 1034,5 hPa 0,0 l/m 5,7 km/h (2 Bft) W 0,00 h 0 W/m 1,6 C 5,7 C 5,7 km/h (2 Bft)
10.02.2008 20:00 5,6 C 77 % 1034,5 hPa 0,0 l/m 5,6 km/h (2 Bft) W 0,00 h 0 W/m 1,9 C 5,3 C 5,6 km/h (2 Bft)
10.02.2008 21:00 4,7 C 78 % 1034,5 hPa 0,0 l/m 4,5 km/h (1 Bft) W 0,00 h 0 W/m 1,2 C 4,7 C 4,5 km/h (1 Bft)
10.02.2008 22:00 4,6 C 81 % 1034,8 hPa 0,0 l/m 5,5 km/h (2 Bft) W 0,00 h 0 W/m 1,5 C 4,4 C 5,5 km/h (2 Bft)
10.02.2008 23:00 4,6 C 81 % 1034,8 hPa 0,0 l/m 6,7 km/h (2 Bft) W 0,00 h 0 W/m 1,7 C 4,1 C 6,7 km/h (2 Bft)
Min-Datum _ 04.02.08 09.02.08 04.02.08 - 09.02.08 - - - 09.02.08 04.02.08 09.02.08
_ Min-Zeit 03:42 12:45 08:44 - 17:03 - - - 12:50 00:51 17:03
Minimum _ 0,9 C 29 % 999,5 hPa - 0,0 km/h (0 Bft) - - - -5,2 C -11,2 C 0,0 km/h (0 Bft)
Max-Datum _ 09.02.08 07.02.08 08.02.08 05.02.08 06.02.08 - 04.02.08 04.02.08 06.02.08 09.02.08 06.02.08
_ Max-Zeit 12:39 08:50 11:24 23:00 01:18 - 00:03 00:03 01:18 15:41 01:18
Maximum _ 12,6 C 98 % 1035,5 hPa 1,8 l/m 39,4 km/h
W-SW (6 Bft)
- 0,00 h 0 W/m 8,2 C 10,9 C 39,4 km/h
W-SW (6 Bft)
Durchschnitt _ 5,9 C 81 % 1021,4 hPa #10,8 l/m 17,0 km/h (3 Bft) W-SW #0 min. 0 W/m 2,5 C -0,2 C 17,0 km/h (3 Bft)
copyright by Holger Just